Time;durP1;ratioP1;P1;durP2;ratioP2;P2;SDS_P1;SDS_P2;PMS_P1;PMS_P2;Temp;Humidity;BMP_temperature;BMP_pressure;BME280_temperature;BME280_humidity;BME280_pressure;Samples;Min_cycle;Max_cycle;Signal;HPM_P1;HPM_P2
2023/12/22 00:02:09;;;;;;;9.98;1.98;;;5.30;99.90;;;;;;4999624;28;20109;-65
2023/12/22 00:04:34;;;;;;;13.10;2.30;;;5.10;99.90;;;;;;5001766;28;20061;-65
2023/12/22 00:07:00;;;;;;;11.20;1.50;;;5.10;99.90;;;;;;4982828;28;20529;-65
2023/12/22 00:09:26;;;;;;;10.82;2.03;;;5.10;99.90;;;;;;4976312;28;20030;-65
2023/12/22 00:11:51;;;;;;;4.50;1.50;;;5.00;99.90;;;;;;4988228;28;20032;-65
2023/12/22 00:14:17;;;;;;;12.65;2.10;;;4.90;99.90;;;;;;5000193;28;20022;-64
2023/12/22 00:16:42;;;;;;;16.52;1.30;;;5.00;99.90;;;;;;4983338;28;20050;-65
2023/12/22 00:19:09;;;;;;;13.93;2.30;;;4.90;99.90;;;;;;5001242;28;20073;-65
2023/12/22 00:21:34;;;;;;;7.47;1.67;;;4.90;99.90;;;;;;5002552;28;20028;-65
2023/12/22 00:24:00;;;;;;;7.85;1.85;;;4.90;99.90;;;;;;5003515;28;20385;-65
2023/12/22 00:26:25;;;;;;;3.67;1.25;;;4.80;99.90;;;;;;5002683;28;20049;-65
2023/12/22 00:28:51;;;;;;;7.45;1.52;;;4.70;99.90;;;;;;5000960;28;20042;-65
2023/12/22 00:31:19;;;;;;;10.43;1.85;;;4.70;99.90;;;;;;4987517;28;20022;-63
2023/12/22 00:33:44;;;;;;;11.82;2.10;;;4.70;99.90;;;;;;5001112;28;20164;-64
2023/12/22 00:36:10;;;;;;;9.50;2.03;;;4.70;99.90;;;;;;5004101;28;20124;-64
2023/12/22 00:38:36;;;;;;;9.05;1.88;;;4.70;99.90;;;;;;5001584;28;20025;-65
2023/12/22 00:41:01;;;;;;;7.10;1.75;;;4.70;99.90;;;;;;5000934;28;20472;-63
2023/12/22 00:43:27;;;;;;;14.00;2.22;;;4.70;99.90;;;;;;5003519;28;20478;-64
2023/12/22 00:45:52;;;;;;;21.50;2.00;;;4.70;99.90;;;;;;4996477;28;20501;-64
2023/12/22 00:48:18;;;;;;;10.32;1.90;;;4.70;99.90;;;;;;4996927;28;20023;-64
2023/12/22 00:50:44;;;;;;;16.50;3.00;;;4.70;99.90;;;;;;4997059;28;20033;-64
2023/12/22 00:53:12;;;;;;;8.40;2.08;;;4.70;99.90;;;;;;4997437;28;20413;-64
2023/12/22 00:55:38;;;;;;;14.05;2.42;;;4.80;99.90;;;;;;5001176;28;20065;-64
2023/12/22 00:58:04;;;;;;;11.18;2.40;;;4.80;99.90;;;;;;4989428;28;20030;-64
2023/12/22 01:00:30;;;;;;;9.68;1.83;;;4.80;99.90;;;;;;4997995;28;20036;-63
2023/12/22 01:02:55;;;;;;;7.43;1.73;;;4.80;99.90;;;;;;5005061;28;20116;-65
2023/12/22 01:05:21;;;;;;;6.70;1.58;;;4.70;99.90;;;;;;4988630;28;20320;-65
2023/12/22 01:07:47;;;;;;;6.85;1.73;;;4.70;99.90;;;;;;4997377;28;20630;-63
2023/12/22 01:10:15;;;;;;;13.45;2.38;;;4.70;99.90;;;;;;4987391;28;20033;-65
2023/12/22 01:12:42;;;;;;;7.47;2.00;;;4.70;99.90;;;;;;5005238;28;20033;-65
2023/12/22 01:15:08;;;;;;;8.43;2.25;;;4.70;99.90;;;;;;4998024;28;20034;-65
2023/12/22 01:17:34;;;;;;;7.22;1.60;;;4.70;99.90;;;;;;5000295;28;20045;-65
2023/12/22 01:19:59;;;;;;;9.82;1.83;;;4.70;99.90;;;;;;5001043;28;20056;-64
2023/12/22 01:22:25;;;;;;;8.63;2.08;;;4.70;99.90;;;;;;5001747;28;20075;-65
2023/12/22 01:24:50;;;;;;;10.20;1.73;;;4.70;99.90;;;;;;4983122;28;20030;-64
2023/12/22 01:27:16;;;;;;;5.53;1.40;;;4.70;99.90;;;;;;5002960;28;20017;-64
2023/12/22 01:29:41;;;;;;;7.18;2.25;;;4.80;99.90;;;;;;4979054;28;20026;-63
2023/12/22 01:32:07;;;;;;;9.63;1.83;;;4.80;99.90;;;;;;4999043;28;20045;-64
2023/12/22 01:34:33;;;;;;;5.25;1.20;;;4.70;99.90;;;;;;4998487;28;20100;-63
2023/12/22 01:36:58;;;;;;;11.43;1.85;;;4.80;99.90;;;;;;4981806;28;20034;-64
2023/12/22 01:39:24;;;;;;;8.13;1.50;;;4.90;99.90;;;;;;4999422;28;20149;-64
2023/12/22 01:41:49;;;;;;;5.88;1.60;;;4.90;99.90;;;;;;4998404;28;20037;-64
2023/12/22 01:44:15;;;;;;;9.38;1.63;;;5.00;99.90;;;;;;5001089;28;20017;-64
2023/12/22 01:46:41;;;;;;;5.80;1.58;;;5.00;99.90;;;;;;4997043;28;20057;-63
2023/12/22 01:49:08;;;;;;;10.15;3.13;;;5.10;99.90;;;;;;5000614;28;20069;-64
2023/12/22 01:51:35;;;;;;;14.73;2.63;;;5.10;99.90;;;;;;4997184;28;20026;-64
2023/12/22 01:54:01;;;;;;;12.73;2.80;;;5.10;99.90;;;;;;4999745;28;20046;-65
2023/12/22 01:56:29;;;;;;;7.70;1.60;;;5.20;99.90;;;;;;5000435;28;20037;-64
2023/12/22 01:58:59;;;;;;;11.80;1.92;;;5.20;99.90;;;;;;4980996;28;20397;-65
2023/12/22 02:01:25;;;;;;;8.48;1.60;;;5.20;99.90;;;;;;4998324;28;20058;-64
2023/12/22 02:03:52;;;;;;;13.10;2.75;;;5.30;99.90;;;;;;4999684;28;20494;-63
2023/12/22 02:06:21;;;;;;;9.75;2.05;;;5.30;99.90;;;;;;5000707;28;20022;-64
2023/12/22 02:08:47;;;;;;;10.85;2.00;;;5.30;99.90;;;;;;5006942;28;20112;-64
2023/12/22 02:11:16;;;;;;;10.80;2.28;;;5.20;99.90;;;;;;5000916;28;20022;-63
2023/12/22 02:13:44;;;;;;;8.15;2.17;;;5.20;99.90;;;;;;4996880;28;20494;-63
2023/12/22 02:16:33;;;;;;;7.32;1.50;;;5.10;99.90;;;;;;4997254;28;20026;-63
2023/12/22 02:19:01;;;;;;;8.65;1.77;;;5.20;99.90;;;;;;4989308;28;20070;-63
2023/12/22 02:21:27;;;;;;;8.57;2.70;;;5.20;99.90;;;;;;5001478;28;20063;-63
2023/12/22 02:23:52;;;;;;;11.60;1.13;;;5.20;99.90;;;;;;5003385;28;20146;-63
2023/12/22 02:26:42;;;;;;;7.13;1.30;;;5.10;99.90;;;;;;5003587;28;20076;-63
2023/12/22 02:29:14;;;;;;;8.00;1.52;;;5.10;99.90;;;;;;5000231;28;20655;-62
2023/12/22 02:31:44;;;;;;;5.25;1.20;;;5.10;99.90;;;;;;5000472;28;20034;-62
2023/12/22 02:34:18;;;;;;;7.80;1.63;;;5.00;99.90;;;;;;5001012;28;20554;-62
2023/12/22 02:36:45;;;;;;;4.38;1.38;;;5.00;99.90;;;;;;5003563;28;20030;-62
2023/12/22 02:39:12;;;;;;;6.65;1.17;;;4.90;99.90;;;;;;4983749;28;20493;-62
2023/12/22 02:41:38;;;;;;;4.78;1.30;;;4.90;99.90;;;;;;5004069;28;20101;-62
2023/12/22 02:44:04;;;;;;;7.45;1.58;;;4.90;99.90;;;;;;5001289;28;20077;-62
2023/12/22 02:46:30;;;;;;;4.05;1.08;;;4.80;99.90;;;;;;4985469;28;20030;-63
2023/12/22 02:48:55;;;;;;;9.57;1.83;;;4.80;99.90;;;;;;4984477;28;20038;-63
2023/12/22 02:51:21;;;;;;;3.95;1.50;;;4.70;99.90;;;;;;5000081;28;20018;-62
2023/12/22 02:53:46;;;;;;;5.82;1.30;;;4.80;99.90;;;;;;4990543;28;20504;-63
2023/12/22 02:56:12;;;;;;;6.00;1.27;;;4.70;99.90;;;;;;5003678;28;20113;-63
2023/12/22 02:58:40;;;;;;;2.65;1.00;;;4.70;99.90;;;;;;5003457;28;20027;-62
2023/12/22 03:01:05;;;;;;;5.40;1.30;;;4.70;99.90;;;;;;4998986;28;20062;-63
2023/12/22 03:03:31;;;;;;;4.88;1.23;;;4.70;99.90;;;;;;4985298;28;20054;-62
2023/12/22 03:05:56;;;;;;;6.20;1.02;;;4.80;99.90;;;;;;4985623;28;20029;-63
2023/12/22 03:08:22;;;;;;;6.60;1.15;;;4.80;99.90;;;;;;5004015;28;20054;-63
2023/12/22 03:10:48;;;;;;;8.25;1.55;;;4.80;99.90;;;;;;5002481;28;20437;-62
2023/12/22 03:13:13;;;;;;;8.40;1.60;;;4.80;99.90;;;;;;5001384;28;20106;-63
2023/12/22 03:15:41;;;;;;;2.83;1.02;;;4.70;99.90;;;;;;4985503;28;20433;-63
2023/12/22 03:18:07;;;;;;;7.47;1.38;;;4.80;99.90;;;;;;5000112;28;20097;-62
2023/12/22 03:20:32;;;;;;;7.88;1.77;;;4.80;99.90;;;;;;5003112;28;20116;-64
2023/12/22 03:22:58;;;;;;;11.77;1.85;;;4.90;99.90;;;;;;4999826;28;20026;-63
2023/12/22 03:25:24;;;;;;;9.95;1.90;;;4.90;99.90;;;;;;5000736;28;20096;-62
2023/12/22 03:27:50;;;;;;;6.75;1.75;;;4.90;99.90;;;;;;5002143;28;20050;-63
2023/12/22 03:30:16;;;;;;;7.53;1.95;;;4.90;99.90;;;;;;5000883;28;20507;-63
2023/12/22 03:32:41;;;;;;;8.07;1.77;;;5.00;99.90;;;;;;4999709;28;20022;-63
2023/12/22 03:35:07;;;;;;;10.88;2.10;;;5.00;99.90;;;;;;5003164;28;20029;-64
2023/12/22 03:37:32;;;;;;;6.65;1.33;;;5.00;99.90;;;;;;4999523;28;20106;-62
2023/12/22 03:39:58;;;;;;;11.07;1.65;;;5.10;99.90;;;;;;5003525;28;20473;-64
2023/12/22 03:42:23;;;;;;;3.20;1.10;;;5.10;99.90;;;;;;5004144;28;20029;-64
2023/12/22 03:44:49;;;;;;;6.00;1.55;;;5.10;99.90;;;;;;4984517;28;20034;-63
2023/12/22 03:47:15;;;;;;;7.90;1.17;;;5.10;99.90;;;;;;5001708;28;20026;-64
2023/12/22 03:49:40;;;;;;;7.40;1.65;;;5.10;99.90;;;;;;4999954;28;20104;-64
2023/12/22 03:52:06;;;;;;;6.18;1.20;;;5.10;99.90;;;;;;5001603;28;20695;-62
2023/12/22 03:54:32;;;;;;;10.30;1.65;;;5.10;99.90;;;;;;4999205;28;20096;-63
2023/12/22 03:56:57;;;;;;;12.35;2.08;;;5.10;99.90;;;;;;5005572;28;20030;-63
2023/12/22 03:59:23;;;;;;;5.93;1.23;;;5.10;99.90;;;;;;4997758;28;20096;-64
2023/12/22 04:01:52;;;;;;;8.02;2.25;;;5.00;99.90;;;;;;5001641;28;20031;-64
2023/12/22 04:04:23;;;;;;;7.93;1.58;;;4.90;99.90;;;;;;5000369;28;20050;-64
2023/12/22 04:06:49;;;;;;;7.47;2.05;;;4.70;99.90;;;;;;4985951;28;20558;-65
2023/12/22 04:09:15;;;;;;;7.70;2.22;;;4.60;99.90;;;;;;5003061;28;20018;-64
2023/12/22 04:11:41;;;;;;;10.07;2.47;;;4.50;99.90;;;;;;5001160;28;20616;-64
2023/12/22 04:14:06;;;;;;;12.30;2.63;;;4.40;99.90;;;;;;4999754;28;20060;-65
2023/12/22 04:16:32;;;;;;;11.45;2.30;;;4.40;99.90;;;;;;5001923;28;20223;-64
2023/12/22 04:18:58;;;;;;;6.05;1.77;;;4.40;99.90;;;;;;4999134;28;20061;-63
2023/12/22 04:21:23;;;;;;;13.55;2.22;;;4.40;99.90;;;;;;4998597;28;20034;-63
2023/12/22 04:23:49;;;;;;;12.75;1.92;;;4.40;99.90;;;;;;5001720;28;20138;-64
2023/12/22 04:26:15;;;;;;;7.60;1.70;;;4.40;99.90;;;;;;5000775;28;20045;-63
2023/12/22 04:28:40;;;;;;;4.82;1.20;;;4.30;99.90;;;;;;4999850;28;20029;-63
2023/12/22 04:31:06;;;;;;;10.02;1.75;;;4.20;99.90;;;;;;5000064;28;20054;-62
2023/12/22 04:33:31;;;;;;;4.47;1.10;;;4.10;99.90;;;;;;4998675;28;20034;-63
2023/12/22 04:35:57;;;;;;;9.20;1.33;;;4.10;99.90;;;;;;5002308;28;20030;-61
2023/12/22 04:38:23;;;;;;;3.90;1.38;;;4.00;99.90;;;;;;4998636;28;20033;-63
2023/12/22 04:40:48;;;;;;;4.07;1.20;;;4.00;99.90;;;;;;5001541;28;20486;-62
2023/12/22 04:43:14;;;;;;;5.00;1.30;;;4.00;99.90;;;;;;4982677;28;20022;-62
2023/12/22 04:45:40;;;;;;;2.88;1.05;;;4.00;99.90;;;;;;4999902;28;20507;-61
2023/12/22 04:48:06;;;;;;;4.25;1.20;;;4.00;99.90;;;;;;5001078;28;20036;-62
2023/12/22 04:50:31;;;;;;;7.05;1.77;;;4.00;99.90;;;;;;5000053;28;20116;-62
2023/12/22 04:52:57;;;;;;;6.10;1.40;;;4.00;99.90;;;;;;4998670;28;20666;-61
2023/12/22 04:55:23;;;;;;;7.97;1.45;;;4.00;99.90;;;;;;4998128;28;20097;-63
2023/12/22 04:57:48;;;;;;;12.57;1.55;;;4.00;99.90;;;;;;5003402;28;20042;-64
2023/12/22 05:00:14;;;;;;;7.90;1.67;;;4.00;99.90;;;;;;4997933;28;20057;-62
2023/12/22 05:02:41;;;;;;;7.07;1.60;;;4.00;99.90;;;;;;4981810;28;20382;-62
2023/12/22 05:05:08;;;;;;;5.32;1.77;;;4.00;99.90;;;;;;5001379;28;20398;-62
2023/12/22 05:07:33;;;;;;;9.13;2.20;;;4.00;99.90;;;;;;5001062;28;20026;-63
2023/12/22 05:09:59;;;;;;;6.93;1.52;;;4.00;99.90;;;;;;4998885;28;20053;-62
2023/12/22 05:12:24;;;;;;;2.03;1.00;;;4.00;99.90;;;;;;5001345;28;20034;-63
2023/12/22 05:14:50;;;;;;;11.23;2.03;;;4.00;99.90;;;;;;4998589;28;20026;-63
2023/12/22 05:17:16;;;;;;;6.70;1.75;;;4.00;99.90;;;;;;5000900;28;20156;-62
2023/12/22 05:19:41;;;;;;;8.60;2.30;;;4.00;99.90;;;;;;4998571;28;20050;-63
2023/12/22 05:22:07;;;;;;;9.57;1.75;;;4.00;99.90;;;;;;4998185;28;20080;-62
2023/12/22 05:24:32;;;;;;;5.93;1.60;;;4.00;99.90;;;;;;4980688;28;20497;-62
2023/12/22 05:26:58;;;;;;;8.45;1.25;;;4.00;99.90;;;;;;5001167;28;20105;-63
2023/12/22 05:29:24;;;;;;;6.60;1.83;;;4.10;99.90;;;;;;4995918;28;20092;-63
2023/12/22 05:31:49;;;;;;;7.18;1.77;;;4.10;99.90;;;;;;4997650;28;20397;-63
2023/12/22 05:34:15;;;;;;;13.90;2.08;;;4.10;99.90;;;;;;5000573;28;20080;-63
2023/12/22 05:36:40;;;;;;;6.20;1.40;;;4.10;99.90;;;;;;4980886;28;20029;-63
2023/12/22 05:39:09;;;;;;;7.40;1.60;;;4.10;99.90;;;;;;4999516;28;20165;-62
2023/12/22 05:41:37;;;;;;;11.38;2.33;;;4.20;99.90;;;;;;4999630;28;20010;-62
2023/12/22 05:44:04;;;;;;;7.20;1.55;;;4.20;99.90;;;;;;4999212;28;20026;-63
2023/12/22 05:46:30;;;;;;;4.43;1.30;;;4.20;99.90;;;;;;5000260;28;20021;-63
2023/12/22 05:48:59;;;;;;;8.70;1.50;;;4.20;99.90;;;;;;4998012;28;20029;-62
2023/12/22 05:51:25;;;;;;;6.70;1.60;;;4.30;99.90;;;;;;4979939;28;20486;-63
2023/12/22 05:53:53;;;;;;;6.55;1.35;;;4.20;99.90;;;;;;5001212;28;20025;-63
2023/12/22 05:56:22;;;;;;;4.30;1.40;;;4.30;99.90;;;;;;4981251;28;20041;-63
2023/12/22 05:58:50;;;;;;;7.88;1.52;;;4.20;99.90;;;;;;5000577;28;20385;-63
2023/12/22 06:01:19;;;;;;;7.65;1.85;;;4.30;99.90;;;;;;4996469;28;20355;-63
2023/12/22 06:03:45;;;;;;;8.25;1.73;;;4.30;99.90;;;;;;4982430;28;20026;-64
2023/12/22 06:06:11;;;;;;;8.68;1.92;;;4.30;99.90;;;;;;5000690;28;20037;-63
2023/12/22 06:08:38;;;;;;;8.32;1.42;;;4.40;99.90;;;;;;4998189;28;20026;-62
2023/12/22 06:11:04;;;;;;;6.25;1.30;;;4.40;99.90;;;;;;4999506;28;20029;-63
2023/12/22 06:13:30;;;;;;;11.68;2.17;;;4.40;99.90;;;;;;4981687;28;20401;-62
2023/12/22 06:15:56;;;;;;;5.50;1.40;;;4.40;99.90;;;;;;4998061;28;20034;-63
2023/12/22 06:18:21;;;;;;;6.18;1.42;;;4.50;99.90;;;;;;5000702;28;20111;-64
2023/12/22 06:20:47;;;;;;;6.70;1.80;;;4.50;99.90;;;;;;4978852;28;20030;-63
2023/12/22 06:23:12;;;;;;;9.45;1.50;;;4.50;99.90;;;;;;4997310;28;20471;-63
2023/12/22 06:25:38;;;;;;;11.20;2.20;;;4.50;99.90;;;;;;4999366;28;20031;-63
2023/12/22 06:28:04;;;;;;;7.75;1.60;;;4.50;99.90;;;;;;4999333;28;20014;-63
2023/12/22 06:30:30;;;;;;;11.15;2.30;;;4.50;99.90;;;;;;4996451;28;20038;-63
2023/12/22 06:32:56;;;;;;;8.18;1.58;;;4.50;99.90;;;;;;5000038;28;20392;-63
2023/12/22 06:35:23;;;;;;;10.60;1.70;;;4.60;99.90;;;;;;4997682;28;20109;-63
2023/12/22 06:37:52;;;;;;;8.50;2.00;;;4.60;99.90;;;;;;5000165;28;20060;-63
2023/12/22 06:40:18;;;;;;;14.30;2.10;;;4.60;99.90;;;;;;4994859;28;20065;-63
2023/12/22 06:42:44;;;;;;;13.65;3.03;;;4.60;99.90;;;;;;4995989;28;20076;-63
2023/12/22 06:45:10;;;;;;;13.40;3.08;;;4.60;99.90;;;;;;4994505;28;20018;-63
2023/12/22 06:47:36;;;;;;;5.97;2.08;;;4.60;99.90;;;;;;4994963;28;20023;-63
2023/12/22 06:50:02;;;;;;;15.55;2.13;;;4.60;99.90;;;;;;4994288;28;20562;-64
2023/12/22 06:52:28;;;;;;;13.07;2.40;;;4.60;99.90;;;;;;4996795;28;20026;-64
2023/12/22 06:54:54;;;;;;;16.10;2.80;;;4.60;99.90;;;;;;4997699;28;20049;-65
2023/12/22 06:57:20;;;;;;;8.07;1.75;;;4.60;99.90;;;;;;5000572;28;20026;-64
2023/12/22 06:59:48;;;;;;;11.38;2.00;;;4.60;99.90;;;;;;4998702;28;20060;-66
2023/12/22 07:02:14;;;;;;;8.38;2.10;;;4.60;99.90;;;;;;4994452;28;20484;-63
2023/12/22 07:05:08;;;;;;;14.93;1.67;;;4.60;99.90;;;;;;4995654;28;20057;-63
2023/12/22 07:07:33;;;;;;;5.47;1.58;;;4.60;99.90;;;;;;5005361;28;20026;-65
2023/12/22 07:09:59;;;;;;;8.93;2.53;;;4.60;99.90;;;;;;5005404;28;20044;-63
2023/12/22 07:12:25;;;;;;;5.00;1.58;;;4.60;99.90;;;;;;4998707;28;20034;-63
2023/12/22 07:14:50;;;;;;;12.18;2.08;;;4.60;99.90;;;;;;4997893;28;20034;-63
2023/12/22 07:17:16;;;;;;;11.20;2.50;;;4.60;99.90;;;;;;5005128;28;20400;-63
2023/12/22 07:19:42;;;;;;;13.20;2.53;;;4.60;99.90;;;;;;5000036;28;20112;-63
2023/12/22 07:22:07;;;;;;;13.98;2.30;;;4.60;99.90;;;;;;4987988;28;20116;-63
2023/12/22 07:24:33;;;;;;;10.32;1.60;;;4.50;99.90;;;;;;5004610;28;20070;-62
2023/12/22 07:26:58;;;;;;;12.05;2.10;;;4.50;99.90;;;;;;4998903;28;20143;-63
2023/12/22 07:29:24;;;;;;;10.77;2.05;;;4.50;99.90;;;;;;4995744;28;20057;-63
2023/12/22 07:31:50;;;;;;;14.35;1.88;;;4.50;99.90;;;;;;5002908;28;20086;-63
2023/12/22 07:34:17;;;;;;;11.77;2.50;;;4.50;99.90;;;;;;4998436;28;20034;-62
2023/12/22 07:36:42;;;;;;;16.30;2.83;;;4.50;99.90;;;;;;5005289;28;20033;-62
2023/12/22 07:39:09;;;;;;;8.95;1.70;;;4.50;99.90;;;;;;5002271;28;20053;-62
2023/12/22 07:41:35;;;;;;;10.93;2.55;;;4.50;99.90;;;;;;5007717;28;20065;-63
2023/12/22 07:44:01;;;;;;;15.35;2.70;;;4.60;99.90;;;;;;5006137;28;20465;-63
2023/12/22 07:46:28;;;;;;;15.18;2.58;;;4.60;99.90;;;;;;4999468;28;20011;-61
2023/12/22 07:48:56;;;;;;;14.02;3.10;;;4.60;99.90;;;;;;5005701;28;20014;-62
2023/12/22 07:51:22;;;;;;;18.70;3.58;;;4.50;99.90;;;;;;5006456;28;20480;-62
2023/12/22 07:53:47;;;;;;;18.98;3.60;;;4.60;99.90;;;;;;5002969;28;20030;-62
2023/12/22 07:56:13;;;;;;;14.90;2.80;;;4.60;99.90;;;;;;5003367;28;20030;-62
2023/12/22 07:58:39;;;;;;;18.10;2.83;;;4.60;99.90;;;;;;5004252;28;20030;-62
2023/12/22 08:01:05;;;;;;;16.40;3.22;;;4.70;99.90;;;;;;4997114;28;20084;-62
2023/12/22 08:03:32;;;;;;;20.17;2.97;;;4.60;99.90;;;;;;4984148;28;20030;-61
2023/12/22 08:05:57;;;;;;;16.10;2.67;;;4.70;99.90;;;;;;5007489;28;20037;-61
2023/12/22 08:08:23;;;;;;;14.80;2.55;;;4.70;99.90;;;;;;4988396;28;20374;-61
2023/12/22 08:10:48;;;;;;;15.30;3.28;;;4.80;99.90;;;;;;5008284;28;20508;-61
2023/12/22 08:13:14;;;;;;;14.60;3.53;;;4.80;99.90;;;;;;5001992;28;20030;-61
2023/12/22 08:15:41;;;;;;;18.35;3.05;;;4.90;99.90;;;;;;5001189;28;20062;-61
2023/12/22 08:18:07;;;;;;;10.55;2.25;;;4.90;99.90;;;;;;5004737;28;20030;-61
2023/12/22 08:20:32;;;;;;;9.15;2.30;;;5.00;99.90;;;;;;4987824;28;20037;-61
2023/12/22 08:22:58;;;;;;;15.85;3.47;;;5.00;99.90;;;;;;5006579;28;20064;-61
2023/12/22 08:25:26;;;;;;;19.58;3.42;;;5.10;99.90;;;;;;5001967;28;20100;-62
2023/12/22 08:27:52;;;;;;;9.63;2.13;;;5.20;99.90;;;;;;5008699;28;20086;-64
2023/12/22 08:30:17;;;;;;;12.23;3.00;;;5.30;99.90;;;;;;5005983;28;20065;-64
2023/12/22 08:32:43;;;;;;;7.15;2.22;;;5.40;99.90;;;;;;5003388;28;20065;-64
2023/12/22 08:35:09;;;;;;;7.82;2.42;;;5.50;99.90;;;;;;5002039;28;20040;-64
2023/12/22 08:37:34;;;;;;;21.05;4.38;;;5.50;99.90;;;;;;5004548;28;20029;-64
2023/12/22 08:40:00;;;;;;;12.93;2.25;;;5.60;99.90;;;;;;5002699;28;20517;-64
2023/12/22 08:42:31;;;;;;;12.82;3.00;;;5.70;99.90;;;;;;4988853;28;20339;-64
2023/12/22 08:44:56;;;;;;;21.23;5.07;;;5.90;99.90;;;;;;5003611;28;20096;-65
2023/12/22 08:47:22;;;;;;;31.27;6.22;;;6.10;99.90;;;;;;4979768;28;20046;-64
2023/12/22 08:49:47;;;;;;;23.38;5.15;;;6.30;99.90;;;;;;4998177;28;20630;-63
2023/12/22 08:52:13;;;;;;;17.42;4.10;;;6.40;99.90;;;;;;5003195;28;20050;-64
2023/12/22 08:54:39;;;;;;;22.38;4.78;;;6.50;99.90;;;;;;4998266;28;20327;-64
2023/12/22 08:57:04;;;;;;;18.25;3.70;;;6.50;99.90;;;;;;4984583;28;20715;-64
2023/12/22 08:59:30;;;;;;;19.33;3.38;;;6.60;99.90;;;;;;4997297;28;20026;-64
2023/12/22 09:01:59;;;;;;;25.65;5.15;;;6.60;99.90;;;;;;5004178;28;20441;-64
2023/12/22 09:04:24;;;;;;;19.55;4.35;;;6.70;99.90;;;;;;4980317;28;20018;-64
2023/12/22 09:06:50;;;;;;;27.85;5.18;;;6.60;99.90;;;;;;4998193;28;20033;-62
2023/12/22 09:09:16;;;;;;;13.43;3.17;;;;;;;;;;5000924;28;20109;-61
2023/12/22 09:11:42;;;;;;;23.15;3.70;;;6.60;99.90;;;;;;4995695;28;20030;-62
2023/12/22 09:14:09;;;;;;;21.27;3.30;;;6.60;99.90;;;;;;4993676;28;20033;-62
2023/12/22 09:16:35;;;;;;;23.80;3.38;;;6.70;99.90;;;;;;4999608;28;20029;-62
2023/12/22 09:19:01;;;;;;;23.33;5.43;;;6.70;99.90;;;;;;4991940;28;20042;-63
2023/12/22 09:21:26;;;;;;;24.52;5.35;;;6.70;99.90;;;;;;5002062;28;20022;-63
2023/12/22 09:23:54;;;;;;;30.25;6.18;;;6.70;99.90;;;;;;4981059;28;20500;-62
2023/12/22 09:26:19;;;;;;;31.58;4.88;;;6.70;99.90;;;;;;4995678;28;20121;-64
2023/12/22 09:28:45;;;;;;;23.33;4.28;;;6.80;99.90;;;;;;4993239;28;20072;-64
2023/12/22 09:31:12;;;;;;;29.00;4.22;;;6.80;99.90;;;;;;4996942;28;20426;-62
2023/12/22 09:33:39;;;;;;;15.13;3.60;;;6.80;99.90;;;;;;4980261;28;20563;-62
2023/12/22 09:36:05;;;;;;;22.70;4.57;;;6.80;99.90;;;;;;4994110;28;20030;-62
2023/12/22 09:38:31;;;;;;;31.92;7.18;;;6.80;99.90;;;;;;4995490;28;20398;-62
2023/12/22 09:40:58;;;;;;;22.08;4.43;;;6.80;99.90;;;;;;4997635;28;20031;-62
2023/12/22 09:43:23;;;;;;;19.30;4.55;;;6.70;99.90;;;;;;4993810;28;20064;-62
2023/12/22 09:45:50;;;;;;;29.05;6.00;;;6.70;99.90;;;;;;4994197;28;20219;-62
2023/12/22 09:48:26;;;;;;;15.48;4.28;;;6.60;99.90;;;;;;5000354;28;20026;-62
2023/12/22 09:50:53;;;;;;;23.45;5.60;;;6.60;99.90;;;;;;5001524;28;20022;-63
2023/12/22 09:53:20;;;;;;;20.02;4.55;;;6.50;99.90;;;;;;4993072;28;20452;-63
2023/12/22 09:55:47;;;;;;;14.25;3.95;;;6.40;99.90;;;;;;4982921;28;20484;-63
2023/12/22 09:58:16;;;;;;;16.48;3.50;;;6.30;99.90;;;;;;5001633;28;20045;-63
2023/12/22 10:00:43;;;;;;;22.05;3.85;;;6.30;99.90;;;;;;4994447;28;20030;-63
2023/12/22 10:03:14;;;;;;;20.45;4.07;;;6.30;99.90;;;;;;4997550;28;20397;-63
2023/12/22 10:05:43;;;;;;;16.85;3.33;;;6.20;99.90;;;;;;4995682;28;20010;-63
2023/12/22 10:08:12;;;;;;;9.25;2.60;;;6.20;99.90;;;;;;5003745;28;20010;-63
2023/12/22 10:10:43;;;;;;;9.60;2.58;;;6.10;99.90;;;;;;4998063;28;20033;-63
2023/12/22 10:13:09;;;;;;;14.80;3.67;;;6.10;99.90;;;;;;4989851;28;20026;-63
2023/12/22 10:15:41;;;;;;;18.42;3.58;;;6.00;99.90;;;;;;5010424;28;20093;-63
2023/12/22 10:18:07;;;;;;;14.10;2.40;;;6.00;99.90;;;;;;5008808;28;20453;-63
2023/12/22 10:20:32;;;;;;;18.15;3.78;;;6.00;99.90;;;;;;5012299;28;20068;-63
2023/12/22 10:22:58;;;;;;;18.27;3.40;;;6.00;99.90;;;;;;5005835;28;20029;-64
2023/12/22 10:25:29;;;;;;;11.45;2.60;;;6.00;99.90;;;;;;4997989;28;20022;-63
2023/12/22 10:27:58;;;;;;;14.00;3.58;;;6.00;99.90;;;;;;5001898;28;20032;-63
2023/12/22 10:30:26;;;;;;;13.45;3.05;;;6.00;99.90;;;;;;4997945;28;20105;-63
2023/12/22 10:32:52;;;;;;;25.25;4.30;;;6.10;99.90;;;;;;5007622;28;20069;-63
2023/12/22 10:35:18;;;;;;;14.98;2.55;;;6.10;99.90;;;;;;5003748;28;20042;-63
2023/12/22 10:37:45;;;;;;;13.85;3.70;;;6.10;99.90;;;;;;5000604;28;20216;-63
2023/12/22 10:40:11;;;;;;;19.05;3.55;;;6.10;99.90;;;;;;5001610;28;20030;-63
2023/12/22 10:42:37;;;;;;;17.35;3.35;;;6.20;99.90;;;;;;5010071;28;20030;-63
2023/12/22 10:45:03;;;;;;;13.70;3.22;;;6.20;99.90;;;;;;5008697;28;20443;-63
2023/12/22 10:47:29;;;;;;;13.68;3.50;;;6.20;99.90;;;;;;4977283;28;20588;-65
2023/12/22 10:49:55;;;;;;;18.15;3.33;;;6.20;99.90;;;;;;5003577;28;20064;-63
2023/12/22 10:52:20;;;;;;;22.95;5.35;;;6.10;99.90;;;;;;4988967;28;20026;-64
2023/12/22 10:54:51;;;;;;;9.52;3.38;;;6.20;99.90;;;;;;4995591;28;20056;-64
2023/12/22 10:57:22;;;;;;;;;;;6.10;99.90;;;;;;5005209;28;20036;-63
2023/12/22 10:59:47;;;;;;;11.00;2.75;;;6.10;99.90;;;;;;5002284;28;20275;-64
2023/12/22 11:02:18;;;;;;;21.15;5.45;;;6.10;99.90;;;;;;4996275;28;20101;-65
2023/12/22 11:05:08;;;;;;;17.17;3.92;;;6.20;99.90;;;;;;5005942;28;20028;-64
2023/12/22 11:07:37;;;;;;;;;;;6.20;99.90;;;;;;5005518;28;20025;-64
2023/12/22 11:10:07;;;;;;;13.15;3.35;;;6.20;99.90;;;;;;5006912;28;19920;-62
2023/12/22 11:12:38;;;;;;;18.15;3.03;;;6.20;99.90;;;;;;5012217;28;20110;-62
2023/12/22 11:15:08;;;;;;;15.15;3.58;;;6.20;99.90;;;;;;5005821;28;20038;-62
2023/12/22 11:17:36;;;;;;;15.00;4.07;;;6.30;99.90;;;;;;5002398;28;20052;-63
2023/12/22 11:20:03;;;;;;;10.65;2.45;;;6.30;99.90;;;;;;4999474;28;20121;-62
2023/12/22 11:22:31;;;;;;;15.38;3.63;;;6.40;99.90;;;;;;5005431;28;20034;-64
2023/12/22 11:25:00;;;;;;;12.43;2.55;;;6.50;99.90;;;;;;5002666;28;20491;-64
2023/12/22 11:27:26;;;;;;;14.23;3.00;;;6.50;99.90;;;;;;4999171;28;20026;-64
2023/12/22 11:29:52;;;;;;;12.63;2.85;;;6.60;99.90;;;;;;5001300;28;20022;-61
2023/12/22 11:32:19;;;;;;;14.82;4.18;;;6.60;99.90;;;;;;5007364;28;20057;-61
2023/12/22 11:34:46;;;;;;;11.70;3.40;;;6.60;99.90;;;;;;5003234;28;20087;-61
2023/12/22 11:37:13;;;;;;;12.30;2.65;;;6.60;99.90;;;;;;5000805;28;20030;-63
2023/12/22 11:39:40;;;;;;;14.48;3.20;;;6.60;99.90;;;;;;5002042;28;20056;-61
2023/12/22 11:42:12;;;;;;;10.63;2.78;;;6.60;99.90;;;;;;5001844;28;20080;-61
2023/12/22 11:44:38;;;;;;;13.75;3.25;;;6.60;99.90;;;;;;4986685;28;20029;-63
2023/12/22 11:47:08;;;;;;;6.63;1.77;;;6.60;99.90;;;;;;4994857;28;20034;-63
2023/12/22 11:49:37;;;;;;;12.43;2.35;;;6.60;99.90;;;;;;4993747;28;20030;-63
2023/12/22 11:52:28;;;;;;;8.30;1.95;;;6.60;99.90;;;;;;4991848;28;20019;-63
2023/12/22 11:54:54;;;;;;;6.85;1.90;;;6.60;99.90;;;;;;4990810;28;20061;-63
2023/12/22 11:57:40;;;;;;;5.68;1.70;;;6.60;99.90;;;;;;4998262;28;20105;-61
2023/12/22 12:00:21;;;;;;;6.32;1.60;;;6.60;99.90;;;;;;5000833;28;20042;-61
2023/12/22 12:02:56;;;;;;;4.80;1.27;;;6.60;99.90;;;;;;5009735;28;20030;-61
2023/12/22 12:05:23;;;;;;;4.30;1.30;;;6.60;99.90;;;;;;5007161;28;20033;-61
2023/12/22 12:07:51;;;;;;;8.95;1.85;;;6.60;99.90;;;;;;5002310;28;20022;-62
2023/12/22 12:10:38;;;;;;;2.15;0.85;;;6.60;99.90;;;;;;5002444;28;20030;-62
2023/12/22 12:13:11;;;;;;;5.13;1.50;;;6.60;99.90;;;;;;4997493;28;20030;-63
2023/12/22 12:15:38;;;;;;;5.30;1.35;;;6.60;99.90;;;;;;5002115;28;20084;-62
2023/12/22 12:18:05;;;;;;;7.47;1.17;;;6.60;99.90;;;;;;4999132;28;20033;-61
2023/12/22 12:20:32;;;;;;;7.00;1.55;;;6.60;99.90;;;;;;5000048;28;20464;-61
2023/12/22 12:22:57;;;;;;;4.50;1.45;;;6.60;99.90;;;;;;5004499;28;20023;-61
2023/12/22 12:25:26;;;;;;;6.70;1.88;;;6.60;99.90;;;;;;5000925;28;20469;-61
2023/12/22 12:28:05;;;;;;;6.45;1.98;;;6.50;99.90;;;;;;5000044;28;20021;-62
2023/12/22 12:30:32;;;;;;;8.17;2.47;;;6.60;99.90;;;;;;4997775;28;20029;-61
2023/12/22 12:33:09;;;;;;;8.77;2.47;;;6.60;99.90;;;;;;5004083;28;20372;-61
2023/12/22 12:35:35;;;;;;;9.30;2.60;;;6.60;99.90;;;;;;4998273;28;20036;-61
2023/12/22 12:38:03;;;;;;;9.10;2.60;;;6.70;99.90;;;;;;5000895;28;20061;-63
2023/12/22 12:40:33;;;;;;;8.18;2.38;;;6.70;99.90;;;;;;5006356;28;20037;-64
2023/12/22 12:42:59;;;;;;;8.65;2.50;;;6.70;99.90;;;;;;5004222;28;20372;-62
2023/12/22 12:45:26;;;;;;;9.02;2.50;;;6.80;99.90;;;;;;5019155;28;20104;-62
2023/12/22 12:47:58;;;;;;;5.97;2.20;;;6.90;99.90;;;;;;5013062;28;20037;-61
2023/12/22 12:50:25;;;;;;;5.18;1.90;;;6.80;99.90;;;;;;4995512;28;20025;-61
2023/12/22 12:52:53;;;;;;;7.50;2.70;;;6.90;99.90;;;;;;5003666;28;20042;-61